Time;durP1;ratioP1;P1;durP2;ratioP2;P2;SDS_P1;SDS_P2;PMS_P1;PMS_P2;Temp;Humidity;BMP_temperature;BMP_pressure;BME280_temperature;BME280_humidity;BME280_pressure;Samples;Min_cycle;Max_cycle;Signal;HPM_P1;HPM_P2
2021/04/12 00:00:42;;;;;;;1.60;1.50;;;3.20;98.20;;;;;;5022862;28;20487;-77
2021/04/12 00:03:13;;;;;;;1.60;1.50;;;3.20;98.20;;;;;;5011710;28;20588;-77
2021/04/12 00:05:47;;;;;;;1.60;1.47;;;3.20;98.20;;;;;;5014534;28;20998;-77
2021/04/12 00:08:20;;;;;;;1.63;1.53;;;3.20;98.20;;;;;;5005603;28;20476;-77
2021/04/12 00:10:56;;;;;;;1.60;1.47;;;3.10;98.20;;;;;;5013432;28;20479;-77
2021/04/12 00:13:31;;;;;;;1.70;1.60;;;3.10;98.20;;;;;;5022046;28;21033;-78
2021/04/12 00:16:02;;;;;;;1.60;1.30;;;3.10;98.20;;;;;;5009260;28;20459;-76
2021/04/12 00:18:34;;;;;;;1.60;1.40;;;3.10;98.20;;;;;;5037333;28;20471;-77
2021/04/12 00:21:07;;;;;;;1.60;1.50;;;3.10;98.20;;;;;;5011817;28;20502;-76
2021/04/12 00:23:41;;;;;;;1.60;1.40;;;3.10;98.20;;;;;;5018564;28;20463;-78
2021/04/12 00:26:12;;;;;;;1.60;1.40;;;3.00;98.20;;;;;;5009662;28;20487;-77
2021/04/12 00:28:43;;;;;;;1.60;1.40;;;3.00;98.20;;;;;;5031592;28;20475;-80
2021/04/12 00:31:14;;;;;;;1.70;1.60;;;3.00;98.20;;;;;;5010383;28;20485;-77
2021/04/12 00:33:54;;;;;;;1.60;1.50;;;3.00;98.20;;;;;;5039838;28;20528;-78
2021/04/12 00:36:28;;;;;;;1.70;1.60;;;3.00;98.20;;;;;;5017002;28;20532;-77
2021/04/12 00:39:01;;;;;;;1.60;1.47;;;3.00;98.20;;;;;;5031823;28;20475;-76
2021/04/12 00:41:58;;;;;;;1.70;1.60;;;3.00;98.20;;;;;;5024258;28;20482;-77
2021/04/12 00:44:39;;;;;;;1.60;1.50;;;3.00;98.20;;;;;;5026666;28;20486;-77
2021/04/12 00:47:27;;;;;;;1.60;1.50;;;3.00;98.20;;;;;;5019018;28;20467;-77
2021/04/12 00:50:13;;;;;;;1.60;1.50;;;2.90;98.20;;;;;;5019650;28;20488;-77
2021/04/12 00:52:50;;;;;;;1.63;1.50;;;2.90;98.20;;;;;;5030527;28;20508;-77
2021/04/12 00:55:28;;;;;;;1.60;1.40;;;2.90;98.20;;;;;;5019407;28;20964;-76
2021/04/12 00:58:07;;;;;;;1.60;1.40;;;2.90;98.20;;;;;;5038301;28;20557;-77
2021/04/12 01:00:38;;;;;;;1.67;1.50;;;2.90;98.20;;;;;;5024022;28;20620;-77
2021/04/12 01:03:38;;;;;;;1.60;1.40;;;2.90;98.20;;;;;;5018112;28;20487;-77
2021/04/12 01:06:10;;;;;;;1.60;1.50;;;2.90;98.20;;;;;;5023042;28;20493;-77
2021/04/12 01:09:00;;;;;;;1.60;1.40;;;2.90;98.20;;;;;;5041548;28;20467;-78
2021/04/12 01:12:13;;;;;;;1.60;1.50;;;2.90;98.20;;;;;;5010783;28;20562;-78
2021/04/12 01:15:25;;;;;;;1.60;1.50;;;2.80;98.20;;;;;;5028692;28;20463;-78
2021/04/12 01:18:12;;;;;;;1.60;1.50;;;2.80;98.20;;;;;;5010320;28;20506;-77
2021/04/12 01:21:20;;;;;;;1.70;1.50;;;2.80;98.20;;;;;;5014181;28;20536;-77
2021/04/12 01:24:17;;;;;;;1.80;1.70;;;2.80;98.20;;;;;;4989422;28;20568;-77
2021/04/12 01:27:14;;;;;;;1.67;1.57;;;2.80;98.20;;;;;;5007468;28;20531;-76
2021/04/12 01:30:28;;;;;;;1.60;1.50;;;2.80;98.20;;;;;;5000348;28;20570;-77
2021/04/12 01:33:26;;;;;;;1.60;1.40;;;2.80;98.20;;;;;;5008651;28;20479;-76
2021/04/12 01:36:33;;;;;;;1.93;1.80;;;2.70;98.20;;;;;;5015650;28;20451;-78
2021/04/12 01:39:25;;;;;;;1.60;1.50;;;2.70;98.20;;;;;;4991055;28;20492;-78
2021/04/12 01:42:00;;;;;;;1.60;1.50;;;2.70;98.20;;;;;;5014228;28;20479;-77
2021/04/12 01:44:41;;;;;;;1.60;1.50;;;2.70;98.20;;;;;;5035699;23;20497;-78
2021/04/12 01:47:31;;;;;;;1.60;1.40;;;2.70;98.20;;;;;;4996068;28;20551;-78
2021/04/12 01:50:18;;;;;;;1.77;1.67;;;2.70;98.20;;;;;;4986837;28;20735;-77
2021/04/12 01:53:12;;;;;;;1.60;1.50;;;2.70;98.20;;;;;;4977048;28;20481;-77
2021/04/12 01:55:56;;;;;;;1.80;1.70;;;2.70;98.20;;;;;;4977444;28;20472;-77
2021/04/12 01:58:41;;;;;;;1.60;1.47;;;2.60;98.20;;;;;;4968886;28;20486;-77
2021/04/12 02:01:30;;;;;;;2.83;2.63;;;2.60;98.20;;;;;;4981945;28;20504;-78
2021/04/12 02:04:10;;;;;;;1.60;1.50;;;2.60;98.20;;;;;;4983340;28;20659;-77
2021/04/12 02:06:48;;;;;;;1.60;1.40;;;2.60;98.20;;;;;;4977210;28;21011;-77
2021/04/12 02:09:36;;;;;;;1.60;1.43;;;2.60;98.20;;;;;;4989533;28;20591;-78
2021/04/12 02:12:14;;;;;;;1.60;1.50;;;2.60;98.20;;;;;;4993396;28;20538;-76
2021/04/12 02:15:12;;;;;;;1.70;1.60;;;2.60;98.20;;;;;;4993831;28;20467;-77
2021/04/12 02:17:59;;;;;;;1.60;1.40;;;2.60;98.20;;;;;;4973244;28;20583;-77
2021/04/12 02:20:37;;;;;;;1.63;1.53;;;2.50;98.20;;;;;;4989619;28;20479;-77
2021/04/12 02:23:29;;;;;;;1.60;1.43;;;2.50;98.20;;;;;;4970367;28;20589;-74
2021/04/12 02:26:12;;;;;;;1.60;1.50;;;2.50;98.20;;;;;;4979487;28;20489;-76
2021/04/12 02:29:01;;;;;;;1.60;1.50;;;2.50;98.20;;;;;;4998875;28;20498;-78
2021/04/12 02:31:41;;;;;;;1.60;1.40;;;2.40;98.20;;;;;;4976866;28;20493;-76
2021/04/12 02:34:13;;;;;;;1.60;1.47;;;2.40;98.20;;;;;;4993246;28;20552;-78
2021/04/12 02:36:52;;;;;;;1.60;1.50;;;2.40;98.20;;;;;;4979026;28;20920;-75
2021/04/12 02:39:37;;;;;;;1.60;1.50;;;2.40;98.20;;;;;;4986492;28;20519;-75
2021/04/12 02:42:16;;;;;;;1.70;1.50;;;2.40;98.20;;;;;;4978346;28;20513;-78
2021/04/12 02:45:19;;;;;;;1.67;1.53;;;2.40;98.20;;;;;;4989877;28;20861;-76
2021/04/12 02:48:02;;;;;;;1.60;1.40;;;2.30;98.20;;;;;;4970896;28;20489;-77
2021/04/12 02:50:54;;;;;;;1.60;1.50;;;2.30;98.20;;;;;;4984642;28;20484;-77
2021/04/12 02:53:43;;;;;;;1.60;1.50;;;2.20;98.20;;;;;;4960492;28;20481;-77
2021/04/12 02:56:23;;;;;;;1.63;1.50;;;2.20;98.20;;;;;;4976892;28;20990;-76
2021/04/12 02:59:22;;;;;;;1.60;1.50;;;2.20;98.20;;;;;;4983960;28;20500;-77
2021/04/12 03:02:34;;;;;;;1.60;1.50;;;2.20;98.20;;;;;;4984580;28;20514;-75
2021/04/12 03:05:23;;;;;;;1.70;1.50;;;2.20;98.20;;;;;;4982611;28;20848;-76
2021/04/12 03:08:08;;;;;;;1.80;1.70;;;2.20;98.20;;;;;;4972325;28;20477;-77
2021/04/12 03:10:55;;;;;;;1.67;1.57;;;2.20;98.20;;;;;;4991331;28;20497;-76
2021/04/12 03:13:55;;;;;;;1.60;1.40;;;2.10;98.20;;;;;;4976115;28;20851;-77
2021/04/12 03:16:47;;;;;;;1.60;1.50;;;2.20;98.20;;;;;;4975278;28;20483;-76
2021/04/12 03:19:36;;;;;;;1.60;1.50;;;2.10;98.20;;;;;;4983359;28;20492;-77
2021/04/12 03:22:34;;;;;;;1.60;1.50;;;2.10;98.20;;;;;;4967297;28;20486;-76
2021/04/12 03:25:27;;;;;;;1.77;1.67;;;2.10;98.20;;;;;;4979954;28;20540;-79
2021/04/12 03:28:04;;;;;;;1.60;1.50;;;2.10;98.20;;;;;;4975982;28;20477;-75
2021/04/12 03:30:47;;;;;;;1.63;1.50;;;2.00;98.20;;;;;;4986443;28;20565;-76
2021/04/12 03:33:27;;;;;;;1.67;1.57;;;2.00;98.20;;;;;;4973942;28;20576;-74
2021/04/12 03:39:40;;;;;;;1.60;1.50;;;2.00;98.20;;;;;;4977640;28;20898;-75
2021/04/12 03:42:20;;;;;;;1.80;1.70;;;2.00;98.20;;;;;;4985807;28;20480;-76
2021/04/12 03:45:11;;;;;;;1.60;1.50;;;2.00;98.20;;;;;;4996103;28;20551;-76
2021/04/12 03:48:15;;;;;;;1.60;1.40;;;2.00;98.20;;;;;;4970770;28;20469;-76
2021/04/12 03:51:15;;;;;;;1.63;1.53;;;2.00;98.20;;;;;;4979869;28;20507;-79
2021/04/12 03:54:12;;;;;;;1.60;1.50;;;2.00;98.20;;;;;;4978832;28;20478;-77
2021/04/12 03:57:21;;;;;;;1.60;1.50;;;2.00;98.20;;;;;;4969967;28;20478;-75
2021/04/12 04:00:08;;;;;;;1.80;1.70;;;2.00;98.20;;;;;;4983600;28;20480;-75
2021/04/12 04:02:51;;;;;;;1.60;1.50;;;1.90;98.20;;;;;;4968475;28;20830;-76
2021/04/12 04:05:42;;;;;;;1.60;1.50;;;1.90;98.20;;;;;;4990571;28;20809;-77
2021/04/12 04:08:41;;;;;;;1.70;1.60;;;1.90;98.20;;;;;;4973650;28;20552;-77
2021/04/12 04:11:53;;;;;;;1.70;1.50;;;1.90;98.20;;;;;;4972716;28;20510;-77
2021/04/12 04:14:51;;;;;;;1.60;1.50;;;1.90;98.20;;;;;;4995528;28;20519;-77
2021/04/12 04:17:29;;;;;;;1.60;1.40;;;1.80;98.20;;;;;;4987991;28;20479;-76
2021/04/12 04:20:14;;;;;;;1.67;1.57;;;1.80;98.20;;;;;;4984163;28;20485;-76
2021/04/12 04:23:01;;;;;;;1.63;1.40;;;1.80;98.20;;;;;;4971214;28;20480;-74
2021/04/12 04:25:58;;;;;;;1.60;1.50;;;1.80;98.20;;;;;;4990256;28;20495;-76
2021/04/12 04:28:57;;;;;;;1.70;1.60;;;1.80;98.20;;;;;;4974502;28;20492;-76
2021/04/12 04:32:17;;;;;;;1.63;1.50;;;1.80;98.20;;;;;;4975740;28;20482;-78
2021/04/12 04:34:58;;;;;;;1.70;1.57;;;1.70;98.20;;;;;;4947439;29;20466;-76
2021/04/12 04:37:45;;;;;;;1.67;1.50;;;1.70;98.20;;;;;;4971770;28;20508;-78
2021/04/12 04:40:34;;;;;;;1.70;1.60;;;1.70;98.20;;;;;;4984216;28;20770;-77
2021/04/12 04:43:33;;;;;;;1.60;1.50;;;1.70;98.20;;;;;;4995891;28;20914;-77
2021/04/12 04:46:24;;;;;;;1.67;1.57;;;1.60;98.20;;;;;;4972778;28;20488;-77
2021/04/12 04:49:03;;;;;;;1.83;1.73;;;1.60;98.20;;;;;;4981541;28;20468;-77
2021/04/12 04:52:00;;;;;;;1.60;1.50;;;1.60;98.20;;;;;;4982732;28;20512;-76
2021/04/12 04:54:58;;;;;;;1.70;1.60;;;1.60;98.20;;;;;;4985128;28;20476;-76
2021/04/12 04:57:40;;;;;;;1.90;1.80;;;1.50;98.20;;;;;;4970919;28;20477;-77
2021/04/12 05:00:48;;;;;;;1.67;1.57;;;1.50;98.20;;;;;;4991225;28;20486;-74
2021/04/12 05:04:01;;;;;;;1.83;1.73;;;1.50;98.20;;;;;;4977370;28;20482;-75
2021/04/12 05:10:24;;;;;;;1.60;1.50;;;1.50;98.20;;;;;;5010431;23;20497;-77
2021/04/12 05:13:09;;;;;;;1.70;1.60;;;1.50;98.20;;;;;;4946803;28;20544;-77
2021/04/12 05:16:21;;;;;;;1.67;1.57;;;1.50;98.20;;;;;;4987803;28;20529;-79
2021/04/12 05:19:10;;;;;;;1.60;1.40;;;1.50;98.20;;;;;;4915421;28;21028;-77
2021/04/12 05:21:54;;;;;;;1.67;1.50;;;1.50;98.20;;;;;;4952291;28;20486;-76
2021/04/12 05:24:51;;;;;;;1.70;1.50;;;1.60;98.20;;;;;;4959381;28;20474;-78
2021/04/12 05:28:03;;;;;;;1.70;1.60;;;1.60;98.20;;;;;;4952761;28;20490;-79
2021/04/12 05:30:55;;;;;;;1.60;1.50;;;1.60;98.20;;;;;;4923336;28;21029;-79
2021/04/12 05:33:42;;;;;;;1.70;1.60;;;1.70;98.20;;;;;;4954755;28;20478;-79
2021/04/12 05:36:25;;;;;;;1.60;1.50;;;1.70;98.20;;;;;;4979962;28;21024;-77
2021/04/12 05:39:20;;;;;;;1.70;1.60;;;1.70;98.20;;;;;;4973021;28;20486;-78
2021/04/12 05:42:20;;;;;;;1.70;1.60;;;1.80;98.20;;;;;;4965695;28;20545;-78
2021/04/12 05:44:58;;;;;;;1.67;1.50;;;1.80;98.20;;;;;;4964297;28;20469;-77
2021/04/12 05:47:59;;;;;;;1.60;1.50;;;1.90;98.20;;;;;;4957516;28;20483;-77
2021/04/12 05:50:49;;;;;;;1.77;1.67;;;2.00;98.20;;;;;;4990435;28;20911;-79
2021/04/12 05:53:35;;;;;;;1.63;1.53;;;2.10;98.20;;;;;;4964815;28;20485;-79
2021/04/12 05:56:31;;;;;;;1.60;1.40;;;2.20;98.20;;;;;;4973380;28;20462;-79
2021/04/12 05:59:36;;;;;;;1.60;1.50;;;2.30;98.20;;;;;;4976234;28;20483;-79
2021/04/12 06:02:18;;;;;;;1.60;1.50;;;2.40;98.20;;;;;;4930337;28;20602;-77
2021/04/12 06:04:55;;;;;;;1.60;1.50;;;2.40;98.20;;;;;;4976515;28;20469;-76
2021/04/12 06:07:46;;;;;;;1.70;1.60;;;2.50;98.20;;;;;;4959367;28;20477;-75
2021/04/12 06:10:55;;;;;;;1.60;1.50;;;2.50;98.20;;;;;;4988376;28;21073;-75
2021/04/12 06:13:51;;;;;;;1.60;1.50;;;2.70;98.20;;;;;;4958887;28;20971;-80
2021/04/12 06:16:51;;;;;;;1.80;1.70;;;2.90;98.20;;;;;;4981449;28;20480;-80
2021/04/12 06:19:45;;;;;;;1.60;1.40;;;3.10;98.20;;;;;;4987104;28;20509;-79
2021/04/12 06:22:56;;;;;;;1.63;1.40;;;3.20;98.20;;;;;;4958028;28;20490;-78
2021/04/12 06:25:59;;;;;;;1.70;1.50;;;3.30;98.20;;;;;;4916943;28;20469;-78
2021/04/12 06:28:50;;;;;;;1.60;1.40;;;3.40;98.20;;;;;;4967864;28;20472;-78
2021/04/12 06:31:46;;;;;;;1.70;1.60;;;3.50;98.20;;;;;;4970839;28;20556;-79
2021/04/12 06:34:38;;;;;;;1.63;1.53;;;3.50;98.20;;;;;;4978010;28;20469;-78
2021/04/12 06:37:18;;;;;;;1.60;1.50;;;3.50;98.20;;;;;;4960512;28;20577;-78
2021/04/12 06:40:06;;;;;;;1.60;1.50;;;3.60;98.20;;;;;;4973701;28;20464;-78
2021/04/12 06:43:12;;;;;;;1.67;1.40;;;3.60;98.20;;;;;;4937656;28;20494;-77
2021/04/12 06:46:17;;;;;;;1.60;1.50;;;3.80;98.20;;;;;;4991118;28;20996;-78
2021/04/12 06:49:31;;;;;;;1.60;1.40;;;3.90;98.20;;;;;;4953004;28;20485;-78
2021/04/12 06:52:34;;;;;;;1.60;1.50;;;4.00;98.20;;;;;;4964918;28;20553;-78
2021/04/12 06:55:18;;;;;;;1.60;1.40;;;4.10;98.20;;;;;;4984829;28;20977;-77
2021/04/12 06:58:24;;;;;;;1.60;1.30;;;4.30;98.20;;;;;;4950183;28;20505;-78
2021/04/12 07:01:40;;;;;;;1.60;1.30;;;4.60;98.20;;;;;;4971370;28;20476;-78
2021/04/12 07:04:52;;;;;;;1.60;1.30;;;4.90;98.20;;;;;;4979220;28;20930;-76
2021/04/12 07:07:57;;;;;;;1.60;1.30;;;5.30;98.20;;;;;;4954809;28;20494;-77
2021/04/12 07:11:03;;;;;;;1.60;1.30;;;5.40;98.20;;;;;;4981404;28;20488;-76
2021/04/12 07:13:52;;;;;;;2.20;2.00;;;5.50;98.20;;;;;;4942548;28;20485;-78
2021/04/12 07:17:02;;;;;;;1.60;1.30;;;5.50;98.20;;;;;;4958510;28;20482;-78
2021/04/12 07:20:10;;;;;;;1.60;1.30;;;5.50;98.20;;;;;;4970958;28;20469;-76
2021/04/12 07:23:28;;;;;;;1.67;1.57;;;5.50;98.20;;;;;;4954119;28;20482;-76
2021/04/12 07:26:27;;;;;;;1.60;1.40;;;5.50;98.20;;;;;;4976365;28;20496;-78
2021/04/12 07:29:28;;;;;;;1.60;1.33;;;5.50;98.20;;;;;;4976412;28;20501;-79
2021/04/12 07:32:20;;;;;;;1.60;1.40;;;5.60;98.20;;;;;;4964617;28;20480;-75
2021/04/12 07:35:25;;;;;;;1.57;1.30;;;5.70;98.20;;;;;;4980836;28;20461;-78
2021/04/12 07:38:21;;;;;;;1.60;1.30;;;5.80;98.20;;;;;;4953582;28;20482;-77
2021/04/12 07:41:29;;;;;;;1.60;1.30;;;6.00;98.20;;;;;;4973885;28;20480;-76
2021/04/12 07:44:33;;;;;;;1.60;1.40;;;6.00;98.20;;;;;;4975746;28;20464;-79
2021/04/12 07:47:41;;;;;;;1.60;1.40;;;6.10;98.20;;;;;;4961345;28;20574;-77
2021/04/12 07:50:48;;;;;;;1.60;1.30;;;6.30;98.20;;;;;;4972295;28;20532;-79
2021/04/12 07:54:08;;;;;;;1.53;1.20;;;6.40;98.20;;;;;;4955972;28;20632;-78
2021/04/12 07:57:24;;;;;;;1.60;1.30;;;6.50;98.20;;;;;;4965860;28;20533;-77
2021/04/12 08:00:31;;;;;;;1.60;1.30;;;6.60;98.20;;;;;;4980996;28;21014;-76
2021/04/12 08:03:19;;;;;;;1.53;1.20;;;6.60;98.20;;;;;;4923423;28;20481;-79
2021/04/12 08:06:13;;;;;;;1.57;1.30;;;6.60;98.20;;;;;;4984240;28;20828;-79
2021/04/12 08:09:11;;;;;;;1.60;1.20;;;6.60;98.20;;;;;;4971513;28;20465;-79
2021/04/12 08:12:29;;;;;;;1.60;1.30;;;6.60;98.20;;;;;;4971329;28;20484;-78
2021/04/12 08:15:45;;;;;;;1.60;1.30;;;6.90;98.20;;;;;;4983573;28;20995;-76
2021/04/12 08:18:28;;;;;;;1.60;1.20;;;7.30;98.20;;;;;;4880521;29;20476;-76
2021/04/12 08:21:33;;;;;;;1.50;1.20;;;7.70;98.20;;;;;;4895762;29;20480;-78
2021/04/12 08:24:22;;;;;;;1.57;1.20;;;8.00;98.20;;;;;;4981141;28;20940;-76
2021/04/12 08:27:11;;;;;;;1.57;1.20;;;8.20;98.20;;;;;;4969167;28;20477;-76
2021/04/12 08:30:32;;;;;;;1.53;1.10;;;8.30;97.20;;;;;;4979100;28;20476;-78
2021/04/12 08:33:35;;;;;;;1.57;1.17;;;8.40;96.50;;;;;;4952114;28;20491;-76
2021/04/12 08:36:41;;;;;;;1.57;1.10;;;8.30;96.30;;;;;;4971718;28;20514;-75
2021/04/12 08:39:38;;;;;;;2.13;1.87;;;8.20;96.30;;;;;;4972679;28;20515;-76
2021/04/12 08:42:21;;;;;;;1.60;1.20;;;8.10;97.00;;;;;;4959334;28;20485;-77
2021/04/12 08:45:30;;;;;;;1.50;1.10;;;8.10;95.70;;;;;;4985444;28;20484;-76
2021/04/12 08:48:19;;;;;;;1.50;1.10;;;8.00;96.70;;;;;;4954337;28;20484;-76
2021/04/12 08:51:13;;;;;;;1.60;1.10;;;8.20;96.50;;;;;;4980146;28;20484;-76
2021/04/12 08:54:09;;;;;;;1.60;1.20;;;8.20;96.40;;;;;;4965185;28;20469;-75
2021/04/12 08:57:05;;;;;;;1.60;1.23;;;8.30;96.90;;;;;;4967347;28;20918;-78
2021/04/12 09:00:05;;;;;;;1.53;1.13;;;8.40;95.70;;;;;;4954884;28;20478;-76
2021/04/12 09:03:12;;;;;;;1.53;1.20;;;8.30;95.50;;;;;;4950047;28;20541;-74
2021/04/12 09:06:12;;;;;;;1.60;1.13;;;8.20;95.00;;;;;;4983922;28;20457;-74
2021/04/12 09:09:16;;;;;;;1.57;1.20;;;8.30;96.00;;;;;;4949672;28;20898;-76
2021/04/12 09:12:17;;;;;;;1.57;1.13;;;8.50;95.30;;;;;;4970786;28;20485;-77
2021/04/12 09:15:31;;;;;;;1.60;1.30;;;8.70;95.90;;;;;;4981958;28;20467;-76
2021/04/12 09:18:24;;;;;;;1.60;1.20;;;8.90;95.20;;;;;;4948315;28;20849;-77
2021/04/12 09:21:08;;;;;;;1.60;1.10;;;9.10;93.90;;;;;;4980235;28;20489;-77
2021/04/12 09:23:57;;;;;;;1.53;1.10;;;9.20;93.40;;;;;;4965511;28;20560;-77
2021/04/12 09:26:56;;;;;;;1.60;1.20;;;9.30;93.00;;;;;;4972405;28;20485;-76
2021/04/12 09:29:54;;;;;;;1.50;1.10;;;9.30;91.90;;;;;;4974253;28;20468;-76
2021/04/12 09:32:44;;;;;;;1.60;1.20;;;9.20;91.40;;;;;;4976661;28;20536;-77
2021/04/12 09:35:36;;;;;;;1.60;1.13;;;9.30;92.40;;;;;;4987344;28;20460;-78
2021/04/12 09:38:38;;;;;;;1.60;1.17;;;9.40;92.40;;;;;;4951578;28;20878;-77
2021/04/12 09:41:31;;;;;;;1.50;1.10;;;9.70;92.40;;;;;;4969956;28;20473;-76
2021/04/12 09:44:25;;;;;;;1.60;1.20;;;9.80;91.20;;;;;;4975691;28;20464;-77
2021/04/12 09:47:35;;;;;;;1.60;1.10;;;10.10;89.90;;;;;;4968259;28;20482;-76
2021/04/12 09:50:39;;;;;;;1.57;1.10;;;10.20;88.70;;;;;;4976031;28;20484;-76
2021/04/12 09:53:47;;;;;;;1.53;1.10;;;10.00;86.60;;;;;;4969761;28;20484;-76
2021/04/12 09:56:51;;;;;;;1.60;1.10;;;10.10;87.60;;;;;;4954616;28;20498;-76
2021/04/12 09:59:45;;;;;;;1.57;1.10;;;10.30;86.40;;;;;;4948579;28;20543;-76
2021/04/12 10:02:47;;;;;;;1.57;1.10;;;10.20;86.60;;;;;;4964181;28;20997;-77
2021/04/12 10:05:38;;;;;;;1.53;1.10;;;9.90;86.50;;;;;;4987735;28;20463;-76
2021/04/12 10:08:11;;;;;;;1.50;1.00;;;9.80;88.20;;;;;;4955991;28;20477;-76
2021/04/12 10:10:54;;;;;;;1.50;1.00;;;9.90;88.70;;;;;;4987016;28;20535;-77
2021/04/12 10:13:42;;;;;;;1.50;1.00;;;10.10;87.80;;;;;;4962004;28;20473;-77
2021/04/12 10:16:15;;;;;;;1.57;1.10;;;10.50;87.80;;;;;;4967664;28;20522;-77
2021/04/12 10:18:45;;;;;;;1.53;1.00;;;10.90;86.30;;;;;;4966206;28;20983;-77
2021/04/12 10:21:28;;;;;;;1.60;1.10;;;11.20;85.00;;;;;;4975164;28;20505;-76
2021/04/12 10:24:03;;;;;;;1.60;1.10;;;11.40;83.70;;;;;;4965630;28;20501;-77
2021/04/12 10:26:40;;;;;;;1.57;1.00;;;11.70;83.60;;;;;;4971264;28;20548;-76
2021/04/12 10:29:11;;;;;;;1.53;1.00;;;12.00;81.70;;;;;;4976761;28;20464;-76
2021/04/12 10:31:42;;;;;;;1.53;1.00;;;12.10;80.00;;;;;;4960565;28;21001;-77
2021/04/12 10:34:13;;;;;;;1.53;1.00;;;12.30;77.40;;;;;;4971593;28;20511;-75
2021/04/12 10:36:52;;;;;;;1.50;1.00;;;12.40;75.50;;;;;;4969021;28;20497;-78
2021/04/12 10:39:31;;;;;;;1.50;1.00;;;12.50;74.20;;;;;;4977616;28;20469;-77
2021/04/12 10:42:06;;;;;;;1.57;1.00;;;12.50;75.60;;;;;;4966925;28;20493;-78
2021/04/12 10:44:38;;;;;;;1.53;1.00;;;12.70;76.00;;;;;;4975762;28;20615;-78
2021/04/12 10:47:17;;;;;;;1.50;1.00;;;12.70;74.80;;;;;;4968554;28;20482;-78
2021/04/12 10:50:05;;;;;;;1.53;1.00;;;12.50;76.60;;;;;;4978239;28;20508;-79
2021/04/12 10:52:42;;;;;;;1.50;1.00;;;12.00;76.50;;;;;;4969995;28;20944;-78
2021/04/12 10:55:14;;;;;;;1.50;1.00;;;11.50;80.00;;;;;;4992910;28;20990;-76
2021/04/12 10:57:47;;;;;;;1.57;1.10;;;11.00;81.40;;;;;;4950142;28;20844;-78
2021/04/12 11:00:26;;;;;;;1.50;1.00;;;10.50;82.10;;;;;;4989446;28;20952;-77
2021/04/12 11:03:15;;;;;;;1.50;1.00;;;10.10;84.90;;;;;;4950990;28;21072;-77
2021/04/12 11:05:43;;;;;;;1.50;1.00;;;10.00;85.50;;;;;;4983648;28;20472;-78
2021/04/12 11:08:24;;;;;;;1.50;1.00;;;10.00;86.60;;;;;;4957176;28;21011;-76
2021/04/12 11:11:09;;;;;;;1.50;1.17;;;10.00;85.90;;;;;;4974381;28;20484;-78
2021/04/12 11:13:42;;;;;;;1.50;1.10;;;10.10;85.20;;;;;;4968430;28;20564;-78
2021/04/12 11:16:13;;;;;;;1.50;1.10;;;10.30;85.60;;;;;;4968813;28;20485;-77
2021/04/12 11:19:09;;;;;;;1.50;1.00;;;10.50;84.50;;;;;;4961524;28;20473;-78
2021/04/12 11:21:41;;;;;;;1.57;1.00;;;10.80;85.00;;;;;;4974044;28;20488;-78
2021/04/12 11:24:16;;;;;;;1.50;1.00;;;11.10;85.00;;;;;;4982462;28;20544;-80
2021/04/12 11:27:18;;;;;;;1.53;1.00;;;11.50;84.70;;;;;;4967984;28;20921;-79
2021/04/12 11:30:01;;;;;;;1.53;1.00;;;12.10;83.70;;;;;;4974302;28;20488;-78
2021/04/12 11:32:41;;;;;;;1.50;1.00;;;12.60;82.80;;;;;;4965121;28;20506;-79
2021/04/12 11:35:14;;;;;;;1.50;1.00;;;13.10;79.50;;;;;;4985559;28;20599;-79
2021/04/12 11:37:47;;;;;;;1.50;1.00;;;12.90;78.50;;;;;;4960414;28;20893;-78
2021/04/12 11:40:18;;;;;;;1.50;0.90;;;12.50;79.30;;;;;;4984623;28;20485;-79
2021/04/12 11:42:55;;;;;;;1.50;1.00;;;11.80;80.30;;;;;;4955043;28;20990;-77
2021/04/12 11:45:26;;;;;;;1.53;1.00;;;11.10;82.80;;;;;;4984859;28;20468;-79
2021/04/12 11:48:01;;;;;;;1.57;1.00;;;10.40;83.60;;;;;;4954494;28;20551;-77
2021/04/12 11:50:34;;;;;;;1.50;1.10;;;9.90;85.40;;;;;;4984417;28;20604;-77
2021/04/12 11:53:11;;;;;;;1.50;1.10;;;9.40;86.30;;;;;;4949161;28;20573;-77
2021/04/12 11:55:47;;;;;;;1.50;1.10;;;8.90;87.80;;;;;;4986231;28;20544;-77
2021/04/12 11:58:18;;;;;;;1.50;1.10;;;8.40;89.50;;;;;;4951559;28;20480;-77
2021/04/12 12:00:57;;;;;;;1.53;1.10;;;8.10;91.70;;;;;;4978523;28;20484;-78
2021/04/12 12:03:53;;;;;;;2.03;1.63;;;7.90;92.60;;;;;;4958288;28;20987;-77
2021/04/12 12:06:35;;;;;;;1.50;1.10;;;7.60;93.30;;;;;;4969358;28;20610;-77
2021/04/12 12:09:10;;;;;;;1.50;1.10;;;7.40;93.80;;;;;;4969647;28;20520;-77
2021/04/12 12:11:46;;;;;;;1.60;1.20;;;7.20;94.30;;;;;;4966384;28;20529;-77
2021/04/12 12:14:24;;;;;;;1.60;1.20;;;7.00;95.60;;;;;;4971923;28;20467;-76
2021/04/12 12:16:54;;;;;;;1.60;1.27;;;6.70;96.40;;;;;;4953468;28;21032;-77
2021/04/12 12:19:29;;;;;;;1.60;1.20;;;6.50;97.50;;;;;;4965131;28;20482;-78
2021/04/12 12:22:13;;;;;;;1.60;1.30;;;6.50;98.20;;;;;;4954279;28;20570;-76
2021/04/12 12:24:45;;;;;;;1.57;1.20;;;6.40;98.20;;;;;;4977131;28;20570;-75
2021/04/12 12:27:17;;;;;;;1.60;1.30;;;6.50;98.20;;;;;;4958944;28;20502;-75
2021/04/12 12:29:47;;;;;;;1.50;1.10;;;6.80;98.20;;;;;;4972251;28;20504;-75
2021/04/12 12:33:04;;;;;;;1.50;1.20;;;6.90;98.20;;;;;;4951054;28;20916;-75
2021/04/12 12:35:42;;;;;;;1.50;1.10;;;7.10;98.20;;;;;;4981673;28;20468;-75
2021/04/12 12:38:38;;;;;;;1.60;1.30;;;7.10;98.20;;;;;;4945997;28;20829;-76
2021/04/12 12:41:13;;;;;;;1.57;1.20;;;7.10;98.20;;;;;;4968274;28;20867;-76
2021/04/12 12:43:41;;;;;;;1.50;1.13;;;7.00;97.90;;;;;;4957066;28;20898;-76
2021/04/12 12:46:10;;;;;;;1.50;1.20;;;7.10;98.20;;;;;;4963472;28;20477;-75
2021/04/12 12:48:45;;;;;;;1.60;1.30;;;7.30;98.20;;;;;;4962249;28;20474;-76
2021/04/12 12:51:15;;;;;;;1.57;1.20;;;7.60;98.20;;;;;;4965610;28;20497;-75
2021/04/12 12:53:47;;;;;;;1.53;1.20;;;7.80;98.20;;;;;;4976075;28;20508;-74
2021/04/12 12:56:22;;;;;;;1.60;1.20;;;7.80;98.00;;;;;;4966239;28;20486;-75
2021/04/12 12:58:57;;;;;;;1.57;1.20;;;7.80;98.20;;;;;;4968263;28;20560;-73
2021/04/12 13:01:29;;;;;;;1.57;1.13;;;7.70;97.80;;;;;;4965303;28;21321;-75
2021/04/12 13:04:08;;;;;;;1.50;1.10;;;7.70;98.20;;;;;;4962476;28;20520;-74
2021/04/12 13:06:35;;;;;;;1.57;1.23;;;7.60;98.20;;;;;;4962370;28;20490;-74
2021/04/12 13:09:12;;;;;;;1.50;1.10;;;7.60;98.20;;;;;;4967599;28;20624;-74
2021/04/12 13:11:42;;;;;;;1.57;1.20;;;7.60;98.20;;;;;;4958428;28;20487;-74
2021/04/12 13:14:11;;;;;;;1.53;1.10;;;7.50;98.20;;;;;;4967629;28;20476;-76
2021/04/12 13:16:38;;;;;;;1.60;1.20;;;7.40;98.20;;;;;;4966201;28;20564;-75
2021/04/12 13:19:07;;;;;;;1.57;1.20;;;7.20;98.20;;;;;;4967699;28;20472;-75
2021/04/12 13:21:36;;;;;;;1.50;1.20;;;7.20;98.20;;;;;;4963093;28;21055;-74
2021/04/12 13:24:13;;;;;;;1.50;1.10;;;7.30;98.20;;;;;;4966349;28;20541;-73
2021/04/12 13:26:45;;;;;;;1.50;1.20;;;7.60;98.20;;;;;;4964614;28;20481;-74
2021/04/12 13:29:16;;;;;;;1.50;1.10;;;8.00;98.20;;;;;;4976943;28;20466;-73
2021/04/12 13:31:47;;;;;;;1.50;1.10;;;8.00;97.30;;;;;;4957483;28;20490;-74
2021/04/12 13:34:19;;;;;;;1.57;1.30;;;8.00;97.50;;;;;;4973217;28;20492;-73
2021/04/12 13:36:51;;;;;;;1.50;1.10;;;8.10;97.00;;;;;;4961762;28;20486;-73
2021/04/12 13:39:29;;;;;;;1.50;1.20;;;8.20;97.40;;;;;;4970136;28;20473;-73
2021/04/12 13:41:57;;;;;;;1.50;1.10;;;8.30;96.20;;;;;;4956066;28;20544;-74
2021/04/12 13:44:26;;;;;;;1.53;1.20;;;8.50;96.80;;;;;;4974508;28;20466;-73
2021/04/12 13:47:14;;;;;;;1.60;1.20;;;8.70;97.70;;;;;;4958224;28;20895;-74
2021/04/12 13:49:52;;;;;;;1.60;1.10;;;9.10;95.10;;;;;;4975717;28;20544;-74
2021/04/12 13:52:23;;;;;;;1.57;1.10;;;9.40;94.90;;;;;;4955184;28;20593;-74
2021/04/12 13:54:55;;;;;;;1.50;1.07;;;9.70;95.10;;;;;;4978452;28;20858;-74
2021/04/12 13:57:30;;;;;;;1.50;1.10;;;10.00;93.50;;;;;;4952759;28;20593;-75
2021/04/12 14:00:10;;;;;;;1.50;1.20;;;10.20;94.80;;;;;;4974990;28;20491;-74
2021/04/12 14:02:40;;;;;;;1.50;1.00;;;10.50;94.50;;;;;;4972197;28;20484;-74
2021/04/12 14:05:16;;;;;;;1.60;1.10;;;10.70;93.10;;;;;;4983544;28;20980;-74
2021/04/12 14:07:46;;;;;;;1.50;1.00;;;10.90;94.10;;;;;;4962149;28;20606;-76
2021/04/12 14:10:20;;;;;;;1.50;1.00;;;11.20;91.00;;;;;;4982407;28;21179;-76
2021/04/12 14:12:59;;;;;;;1.50;1.00;;;11.20;89.80;;;;;;4951861;28;20528;-75
2021/04/12 14:15:31;;;;;;;1.53;1.00;;;11.30;93.40;;;;;;4985257;28;20561;-76
2021/04/12 14:18:03;;;;;;;1.50;1.00;;;11.40;88.80;;;;;;4953037;28;21039;-75
2021/04/12 14:20:35;;;;;;;1.50;1.07;;;11.40;89.00;;;;;;4980168;28;20487;-75
2021/04/12 14:23:12;;;;;;;1.50;1.00;;;11.30;88.20;;;;;;4954620;28;20485;-76
2021/04/12 14:25:42;;;;;;;1.50;1.00;;;11.10;88.10;;;;;;4974451;28;20465;-76
2021/04/12 14:28:17;;;;;;;1.53;1.10;;;10.80;88.80;;;;;;4949547;28;20565;-75
2021/04/12 14:30:47;;;;;;;1.50;1.00;;;10.70;88.80;;;;;;4975255;28;20523;-76
2021/04/12 14:33:20;;;;;;;1.50;1.07;;;10.50;89.80;;;;;;4971100;28;20481;-76
2021/04/12 14:35:49;;;;;;;1.50;1.00;;;10.70;90.90;;;;;;4979010;28;20465;-76
2021/04/12 14:38:21;;;;;;;1.50;1.00;;;11.00;89.40;;;;;;4981428;28;20534;-76
2021/04/12 14:40:53;;;;;;;1.50;0.90;;;11.30;86.80;;;;;;4976164;28;21166;-77
2021/04/12 14:43:26;;;;;;;1.50;1.07;;;11.50;83.90;;;;;;4975577;28;20470;-76
2021/04/12 14:46:03;;;;;;;1.50;1.00;;;11.40;83.50;;;;;;4974274;28;20522;-77